MM48 weather

Ciudad Pemex Airport
Tabasco, Mexico

Public forecast

Using degrees Celsius for public forecast. Weather courtesy of forecast.io.

Closest aviation weather report (METAR) to Ciudad Pemex Airport

Closest report is Carlos Rovirosa Pérez International Airport, 20.7 nm (38.4 km) WNW. Retrieved 2020/02/22 19:41 UTC (20 minutes ago):

MMVA 221941Z 07005KT 5SM OVC016 24/22 A3017 RMK 8/7// VRBL CONDS

Closest aviation forecast (TAF) to Ciudad Pemex Airport

Closest forecast is Carlos Rovirosa Pérez International Airport, 20.7 nm (38.4 km) WNW. Retrieved 2020/02/22 18:38 UTC (1 hour ago):

TAF MMVA 221632Z 2218/2318 06014KT 3SM -DZ BR BKN008 TEMPO 2218/2222 1 1/2SM -DZ BR OVC005 FM230000 02012KT 3SM BR BKN010 FM230400 02005KT 4SM HZ BKN010 TEMPO 2311/2315 3SM BR HZ BKN008 FM231700 08012KT 6SM HZ SCT010 BKN030 OVC070